createdAt,value
2023-11-30T00:00:37.336Z,100460.88
2023-11-30T00:03:04.793Z,100458.88
2023-11-30T00:05:31.770Z,100459.91
2023-11-30T00:07:58.746Z,100459.91
2023-11-30T00:10:25.751Z,100456.31
2023-11-30T00:12:52.619Z,100456.31
2023-11-30T00:15:19.684Z,100462.47
2023-11-30T00:17:46.815Z,100456.75
2023-11-30T00:20:14.157Z,100454.00
2023-11-30T00:22:42.459Z,100461.44
2023-11-30T00:25:09.710Z,100455.09
2023-11-30T00:27:36.712Z,100455.88
2023-11-30T00:30:04.180Z,100448.19
2023-11-30T00:32:31.232Z,100441.25
2023-11-30T00:34:58.207Z,100441.03
2023-11-30T00:37:25.217Z,100435.34
2023-11-30T00:39:52.129Z,100432.78
2023-11-30T00:42:19.441Z,100431.19
2023-11-30T00:44:46.554Z,100435.56
2023-11-30T00:47:13.500Z,100429.66
2023-11-30T00:49:40.475Z,100432.44
2023-11-30T00:52:07.480Z,100433.22
2023-11-30T00:54:34.436Z,100433.22
2023-11-30T00:57:01.408Z,100435.78
2023-11-30T00:59:28.416Z,100426.53
2023-11-30T01:01:55.537Z,100436.03
2023-11-30T01:04:22.568Z,100437.22
2023-11-30T01:06:49.881Z,100428.97
2023-11-30T01:09:16.938Z,100429.75
2023-11-30T01:11:44.715Z,100434.66
2023-11-30T01:14:11.876Z,100430.88
2023-11-30T01:16:38.968Z,100429.09
2023-11-30T01:19:06.415Z,100418.06
2023-11-30T01:22:29.881Z,100420.84
2023-11-30T01:24:56.773Z,100413.91
2023-11-30T01:27:23.800Z,100416.13
2023-11-30T01:29:51.249Z,100413.56
2023-11-30T01:32:18.178Z,100411.09
2023-11-30T01:34:45.047Z,100411.31
2023-11-30T01:37:12.252Z,100406.41
2023-11-30T01:39:39.321Z,100406.66
2023-11-30T01:42:06.364Z,100402.06
2023-11-30T01:44:33.323Z,100397.16
2023-11-30T01:47:01.053Z,100399.50
2023-11-30T01:49:28.278Z,100400.84
2023-11-30T01:51:55.312Z,100402.63
2023-11-30T01:54:22.399Z,100406.75
2023-11-30T01:56:50.480Z,100416.38
2023-11-30T01:59:17.506Z,100406.88
2023-11-30T02:01:44.620Z,100403.28
2023-11-30T02:04:16.623Z,100393.59
2023-11-30T02:06:47.681Z,100392.59
2023-11-30T02:09:15.260Z,100394.16
2023-11-30T02:11:42.532Z,100396.16
2023-11-30T02:14:09.505Z,100400.84
2023-11-30T02:16:36.442Z,100399.28
2023-11-30T02:19:03.548Z,100396.50
2023-11-30T02:21:31.538Z,100392.13
2023-11-30T02:23:58.590Z,100392.94
2023-11-30T02:26:25.575Z,100390.94
2023-11-30T02:28:52.540Z,100389.34
2023-11-30T02:31:19.483Z,100383.44
2023-11-30T02:33:46.542Z,100387.00
2023-11-30T02:36:14.039Z,100377.53
2023-11-30T02:38:41.125Z,100387.00
2023-11-30T02:41:08.364Z,100380.66
2023-11-30T02:43:35.314Z,100388.13
2023-11-30T02:46:02.317Z,100382.56
2023-11-30T02:48:29.262Z,100383.31
2023-11-30T02:50:56.217Z,100379.78
2023-11-30T02:53:23.222Z,100384.09
2023-11-30T02:55:50.162Z,100376.19
2023-11-30T02:58:17.123Z,100372.84
2023-11-30T03:00:44.343Z,100378.53
2023-11-30T03:03:11.322Z,100378.53
2023-11-30T03:05:38.269Z,100379.53
2023-11-30T03:08:05.571Z,100368.69
2023-11-30T03:10:32.539Z,100369.72
2023-11-30T03:12:59.633Z,100372.84
2023-11-30T03:15:26.676Z,100372.06
2023-11-30T03:17:53.777Z,100369.72
2023-11-30T03:20:20.731Z,100374.84
2023-11-30T03:22:47.821Z,100371.25
2023-11-30T03:25:14.884Z,100371.25
2023-11-30T03:27:41.945Z,100367.72
2023-11-30T03:30:09.500Z,100374.84
2023-11-30T03:32:36.534Z,100369.50
2023-11-30T03:35:03.790Z,100366.94
2023-11-30T03:37:30.668Z,100368.69
2023-11-30T03:39:57.655Z,100367.50
2023-11-30T03:42:24.614Z,100370.84
2023-11-30T03:44:51.582Z,100371.38
2023-11-30T03:47:18.524Z,100362.34
2023-11-30T03:49:45.518Z,100364.69
2023-11-30T03:52:12.619Z,100360.00
2023-11-30T03:54:39.629Z,100365.91
2023-11-30T03:57:06.581Z,100370.06
2023-11-30T03:59:33.596Z,100371.59
2023-11-30T04:02:00.520Z,100371.81
2023-11-30T04:04:29.057Z,100378.53
2023-11-30T04:06:56.121Z,100374.19
2023-11-30T04:09:23.095Z,100370.84
2023-11-30T04:11:50.105Z,100369.81
2023-11-30T04:14:17.180Z,100365.22
2023-11-30T04:16:44.206Z,100366.25
2023-11-30T04:19:11.254Z,100364.69
2023-11-30T04:21:38.227Z,100370.16
2023-11-30T04:24:05.432Z,100367.81
2023-11-30T04:26:32.496Z,100361.13
2023-11-30T04:28:59.394Z,100359.09
2023-11-30T04:31:26.385Z,100360.09
2023-11-30T04:33:53.378Z,100360.66
2023-11-30T04:36:20.945Z,100361.47
2023-11-30T04:38:47.882Z,100362.22
2023-11-30T04:41:14.782Z,100363.81
2023-11-30T04:43:41.812Z,100366.38
2023-11-30T04:46:08.972Z,100370.50
2023-11-30T04:48:36.571Z,100363.34
2023-11-30T04:51:04.442Z,100361.56
2023-11-30T04:53:31.548Z,100358.22
2023-11-30T04:55:58.498Z,100362.56
2023-11-30T04:58:25.503Z,100366.94
2023-11-30T05:00:52.640Z,100374.06
2023-11-30T05:03:19.827Z,100365.34
2023-11-30T05:05:46.953Z,100364.13
2023-11-30T05:08:14.800Z,100360.00
2023-11-30T05:10:42.029Z,100364.91
2023-11-30T05:13:09.133Z,100369.59
2023-11-30T05:15:39.661Z,100372.16
2023-11-30T05:18:07.753Z,100360.91
2023-11-30T05:20:34.898Z,100368.59
2023-11-30T05:23:04.766Z,100364.47
2023-11-30T05:25:32.149Z,100367.78
2023-11-30T05:28:00.282Z,100358.09
2023-11-30T05:30:28.221Z,100355.84
2023-11-30T05:32:55.228Z,100358.97
2023-11-30T05:35:24.256Z,100357.66
2023-11-30T05:37:51.238Z,100354.06
2023-11-30T05:40:20.390Z,100351.28
2023-11-30T05:42:48.812Z,100357.97
2023-11-30T05:45:16.392Z,100358.53
2023-11-30T05:47:43.531Z,100361.09
2023-11-30T05:50:11.248Z,100369.38
2023-11-30T05:52:38.403Z,100363.97
2023-11-30T05:55:09.973Z,100355.28
2023-11-30T05:57:37.509Z,100355.28
2023-11-30T06:00:05.783Z,100362.22
2023-11-30T06:02:33.721Z,100367.56
2023-11-30T06:05:00.978Z,100365.78
2023-11-30T06:07:28.064Z,100372.94
2023-11-30T06:09:55.818Z,100373.47
2023-11-30T06:12:23.102Z,100376.81
2023-11-30T06:14:50.204Z,100380.41
2023-11-30T06:17:18.455Z,100378.84
2023-11-30T06:19:45.665Z,100385.22
2023-11-30T06:22:14.186Z,100386.78
2023-11-30T06:24:41.304Z,100390.69
2023-11-30T06:27:08.690Z,100391.47
2023-11-30T06:29:35.866Z,100392.00
2023-11-30T06:32:03.893Z,100391.78
2023-11-30T06:34:30.934Z,100401.84
2023-11-30T06:36:58.039Z,100398.72
2023-11-30T06:39:26.046Z,100399.50
2023-11-30T06:41:53.867Z,100397.72
2023-11-30T06:44:21.630Z,100392.56
2023-11-30T06:46:48.790Z,100405.19
2023-11-30T06:49:16.108Z,100397.28
2023-11-30T06:51:43.129Z,100393.13
2023-11-30T06:54:10.338Z,100393.69
2023-11-30T06:56:37.453Z,100393.47
2023-11-30T06:59:04.510Z,100394.22
2023-11-30T07:01:32.006Z,100399.38
2023-11-30T07:03:59.139Z,100396.25
2023-11-30T07:06:26.416Z,100403.97
2023-11-30T07:08:53.560Z,100393.94
2023-11-30T07:11:20.660Z,100400.41
2023-11-30T07:13:48.780Z,100392.69
2023-11-30T07:16:15.973Z,100391.34
2023-11-30T07:18:43.268Z,100394.47
2023-11-30T07:21:15.218Z,100401.38
2023-11-30T07:23:44.313Z,100385.97
2023-11-30T07:26:15.221Z,100387.00
2023-11-30T07:28:43.114Z,100389.22
2023-11-30T07:31:21.908Z,100394.38
2023-11-30T07:33:49.917Z,100393.59
2023-11-30T07:36:17.262Z,100391.78
2023-11-30T07:38:44.497Z,100392.22
2023-11-30T07:41:12.962Z,100407.88
2023-11-30T07:43:40.139Z,100416.03
2023-11-30T07:46:07.709Z,100415.03
2023-11-30T07:48:34.615Z,100410.91
2023-11-30T07:51:01.653Z,100411.56
2023-11-30T07:53:28.631Z,100409.44
2023-11-30T07:55:58.457Z,100421.50
2023-11-30T07:58:26.004Z,100414.56
2023-11-30T08:00:53.245Z,100409.91
2023-11-30T08:03:20.468Z,100421.97
2023-11-30T08:05:47.754Z,100423.72
2023-11-30T08:08:15.089Z,100410.13
2023-11-30T08:10:42.098Z,100416.03
2023-11-30T08:13:12.089Z,100407.78
2023-11-30T08:15:39.268Z,100410.13
2023-11-30T08:18:08.700Z,100418.38
2023-11-30T08:20:36.875Z,100415.81
2023-11-30T08:23:04.216Z,100408.66
2023-11-30T08:25:31.215Z,100410.47
2023-11-30T08:27:58.306Z,100409.44
2023-11-30T08:30:27.453Z,100400.75
2023-11-30T08:32:54.811Z,100403.53
2023-11-30T08:35:23.135Z,100398.41
2023-11-30T08:37:50.316Z,100395.81
2023-11-30T08:40:17.308Z,100401.97
2023-11-30T08:42:44.380Z,100401.19
2023-11-30T08:45:11.619Z,100396.28
2023-11-30T08:47:38.929Z,100391.38
2023-11-30T08:50:06.593Z,100384.91
2023-11-30T08:52:33.878Z,100385.13
2023-11-30T08:55:01.759Z,100385.47
2023-11-30T08:57:28.870Z,100387.34
2023-11-30T08:59:56.930Z,100396.25
2023-11-30T09:02:25.768Z,100393.25
2023-11-30T09:04:53.103Z,100397.72
2023-11-30T09:07:20.201Z,100385.41
2023-11-30T09:09:50.476Z,100391.91
2023-11-30T09:12:18.555Z,100395.81
2023-11-30T09:14:45.598Z,100390.19
2023-11-30T09:17:12.708Z,100396.44
2023-11-30T09:19:39.762Z,100382.06
2023-11-30T09:22:09.182Z,100390.66
2023-11-30T09:24:36.432Z,100388.09
2023-11-30T09:27:04.202Z,100387.41
2023-11-30T09:29:32.736Z,100380.25
2023-11-30T09:32:00.842Z,100385.94
2023-11-30T09:34:28.656Z,100381.34
2023-11-30T09:36:55.676Z,100382.22
2023-11-30T09:39:22.784Z,100391.03
2023-11-30T09:41:49.781Z,100390.56
2023-11-30T09:44:16.884Z,100395.81
2023-11-30T09:46:44.249Z,100387.88
2023-11-30T09:49:11.403Z,100392.78
2023-11-30T09:51:42.715Z,100392.56
2023-11-30T09:54:11.120Z,100391.56
2023-11-30T09:56:38.138Z,100389.53
2023-11-30T09:59:05.126Z,100393.00
2023-11-30T10:01:34.158Z,100391.97
2023-11-30T10:04:16.860Z,100382.00
2023-11-30T10:06:44.782Z,100385.69
2023-11-30T10:09:14.321Z,100387.56
2023-11-30T10:11:42.036Z,100386.63
2023-11-30T10:14:09.387Z,100381.38
2023-11-30T10:16:36.989Z,100380.97
2023-11-30T10:19:08.677Z,100373.34
2023-11-30T10:21:36.099Z,100376.44
2023-11-30T10:24:03.566Z,100375.13
2023-11-30T10:26:34.930Z,100379.25
2023-11-30T10:29:07.880Z,100369.06
2023-11-30T10:31:36.718Z,100379.91
2023-11-30T10:34:12.990Z,100370.47
2023-11-30T10:36:42.745Z,100376.78
2023-11-30T10:39:24.079Z,100375.38
2023-11-30T10:41:53.824Z,100378.25
2023-11-30T10:44:32.289Z,100377.16
2023-11-30T10:47:00.752Z,100378.94
2023-11-30T10:49:29.820Z,100374.72
2023-11-30T10:52:02.492Z,100371.59
2023-11-30T10:54:40.186Z,100372.78
2023-11-30T10:57:08.151Z,100375.41
2023-11-30T10:59:35.524Z,100375.41
2023-11-30T11:02:07.047Z,100376.44
2023-11-30T11:04:34.390Z,100386.31
2023-11-30T11:07:08.763Z,100378.81
2023-11-30T11:09:51.524Z,100380.44
2023-11-30T11:12:24.342Z,100380.53
2023-11-30T11:14:52.369Z,100385.59
2023-11-30T11:17:23.100Z,100388.69
2023-11-30T11:19:50.156Z,100388.34
2023-11-30T11:22:21.329Z,100393.53
2023-11-30T11:24:49.657Z,100397.75
2023-11-30T11:27:30.514Z,100391.53
2023-11-30T11:30:06.532Z,100394.81
2023-11-30T11:32:35.893Z,100395.91
2023-11-30T11:35:09.040Z,100396.50
2023-11-30T11:37:36.176Z,100404.31
2023-11-30T11:40:04.800Z,100392.75
2023-11-30T11:42:33.715Z,100388.63
2023-11-30T11:45:04.126Z,100388.78
2023-11-30T11:47:31.851Z,100389.03
2023-11-30T11:49:59.172Z,100393.25
2023-11-30T11:52:27.069Z,100390.53
2023-11-30T11:55:11.625Z,100394.09
2023-11-30T11:57:40.635Z,100389.63
2023-11-30T12:00:15.228Z,100384.44
2023-11-30T12:02:42.768Z,100382.31
2023-11-30T12:05:15.179Z,100380.13
2023-11-30T12:07:52.810Z,100380.13
2023-11-30T12:10:39.192Z,100375.94
2023-11-30T12:13:07.740Z,100376.78
2023-11-30T12:15:35.268Z,100374.19
2023-11-30T12:18:02.667Z,100372.09
2023-11-30T12:20:30.461Z,100368.34
2023-11-30T12:22:57.395Z,100372.50
2023-11-30T12:25:27.636Z,100370.47
2023-11-30T12:27:54.618Z,100368.44
2023-11-30T12:30:22.052Z,100361.72
2023-11-30T12:32:50.302Z,100362.97
2023-11-30T12:35:17.575Z,100356.03
2023-11-30T12:37:44.655Z,100356.56
2023-11-30T12:40:14.629Z,100356.34
2023-11-30T12:42:45.602Z,100358.38
2023-11-30T12:45:14.161Z,100360.19
2023-11-30T12:47:42.371Z,100364.06
2023-11-30T12:50:12.137Z,100361.59
2023-11-30T12:52:39.753Z,100366.97
2023-11-30T12:55:07.572Z,100361.25
2023-11-30T12:57:35.900Z,100363.84
2023-11-30T13:00:10.582Z,100362.19
2023-11-30T13:02:37.974Z,100370.91
2023-11-30T13:05:05.523Z,100371.56
2023-11-30T13:07:32.486Z,100362.59
2023-11-30T13:09:59.479Z,100364.63
2023-11-30T13:12:27.957Z,100367.81
2023-11-30T13:14:57.616Z,100365.00
2023-11-30T13:17:24.794Z,100373.75
2023-11-30T13:19:51.828Z,100381.09
2023-11-30T13:22:18.906Z,100375.63
2023-11-30T13:24:46.009Z,100380.44
2023-11-30T13:27:13.084Z,100381.91
2023-11-30T13:29:40.013Z,100386.53
2023-11-30T13:32:08.042Z,100383.41
2023-11-30T13:34:36.573Z,100382.16
2023-11-30T13:37:03.570Z,100377.53
2023-11-30T13:39:30.574Z,100382.69
2023-11-30T13:42:00.118Z,100387.84
2023-11-30T13:44:27.739Z,100385.44
2023-11-30T13:46:55.407Z,100382.09
2023-11-30T13:49:22.712Z,100376.50
2023-11-30T13:51:51.179Z,100383.38
2023-11-30T13:54:18.375Z,100373.88
2023-11-30T13:56:45.491Z,100376.22
2023-11-30T13:59:12.699Z,100376.78
2023-11-30T14:01:40.124Z,100374.97
2023-11-30T14:04:09.658Z,100378.25
2023-11-30T14:06:40.877Z,100389.44
2023-11-30T14:09:15.127Z,100390.81
2023-11-30T14:11:42.829Z,100385.47
2023-11-30T14:14:10.174Z,100383.19
2023-11-30T14:16:38.889Z,100383.19
2023-11-30T14:19:06.038Z,100380.75
2023-11-30T14:21:33.115Z,100389.19
2023-11-30T14:24:00.273Z,100376.75
2023-11-30T14:26:27.330Z,100379.25
2023-11-30T14:28:54.296Z,100380.25
2023-11-30T14:31:21.543Z,100388.44
2023-11-30T14:33:48.866Z,100389.34
2023-11-30T14:36:16.118Z,100392.38
2023-11-30T14:38:43.080Z,100389.81
2023-11-30T14:41:10.069Z,100385.75
2023-11-30T14:43:37.053Z,100397.28
2023-11-30T14:46:04.237Z,100394.31
2023-11-30T14:48:31.225Z,100401.91
2023-11-30T14:50:58.258Z,100398.78
2023-11-30T14:53:25.167Z,100398.66
2023-11-30T14:55:52.077Z,100404.59
2023-11-30T14:58:21.168Z,100405.59
2023-11-30T15:00:49.256Z,100408.16
2023-11-30T15:03:17.044Z,100406.91
2023-11-30T15:05:44.026Z,100406.13
2023-11-30T15:08:11.626Z,100403.22
2023-11-30T15:10:38.779Z,100408.06
2023-11-30T15:13:05.795Z,100407.81
2023-11-30T15:15:32.968Z,100407.03
2023-11-30T15:18:00.164Z,100402.34
2023-11-30T15:20:27.246Z,100416.66
2023-11-30T15:22:54.454Z,100420.25
2023-11-30T15:25:22.237Z,100417.13
2023-11-30T15:27:50.427Z,100403.72
2023-11-30T15:30:18.182Z,100414.91
2023-11-30T15:32:45.688Z,100408.19
2023-11-30T15:35:12.866Z,100411.22
2023-11-30T15:37:39.914Z,100408.44
2023-11-30T15:40:10.853Z,100413.31
2023-11-30T15:42:39.837Z,100414.56
2023-11-30T15:45:11.696Z,100415.34
2023-11-30T15:47:40.593Z,100417.91
2023-11-30T15:50:08.134Z,100419.28
2023-11-30T15:52:35.184Z,100414.22
2023-11-30T15:55:02.268Z,100413.03
2023-11-30T15:57:29.415Z,100425.63
2023-11-30T15:59:56.473Z,100419.28
2023-11-30T16:02:23.662Z,100424.84
2023-11-30T16:04:51.390Z,100431.22
2023-11-30T16:07:18.469Z,100429.63
2023-11-30T16:09:45.672Z,100427.63
2023-11-30T16:12:12.649Z,100437.47
2023-11-30T16:14:41.440Z,100427.97
2023-11-30T16:17:09.485Z,100431.31
2023-11-30T16:19:39.570Z,100427.41
2023-11-30T16:22:06.672Z,100425.63
2023-11-30T16:24:36.814Z,100422.50
2023-11-30T16:27:04.556Z,100436.16
2023-11-30T16:29:31.550Z,100431.09
2023-11-30T16:31:58.703Z,100435.59
2023-11-30T16:34:31.966Z,100433.78
2023-11-30T16:36:59.984Z,100440.47
2023-11-30T16:39:28.719Z,100437.69
2023-11-30T16:41:57.397Z,100432.78
2023-11-30T16:44:24.500Z,100435.34
2023-11-30T16:46:51.538Z,100431.00
2023-11-30T16:49:18.592Z,100426.66
2023-11-30T16:51:49.350Z,100423.50
2023-11-30T16:54:22.223Z,100429.44
2023-11-30T16:56:49.270Z,100431.00
2023-11-30T16:59:17.694Z,100428.31
2023-11-30T17:01:44.991Z,100427.19
2023-11-30T17:04:12.117Z,100415.38
2023-11-30T17:06:39.839Z,100415.81
2023-11-30T17:09:06.917Z,100404.00
2023-11-30T17:11:33.861Z,100416.28
2023-11-30T17:14:01.046Z,100411.13
2023-11-30T17:16:28.032Z,100403.66
2023-11-30T17:18:55.098Z,100407.66
2023-11-30T17:21:22.779Z,100407.88
2023-11-30T17:23:49.761Z,100406.09
2023-11-30T17:26:16.858Z,100410.47
2023-11-30T17:28:44.779Z,100413.03
2023-11-30T17:31:11.838Z,100415.03
2023-11-30T17:33:39.058Z,100423.50
2023-11-30T17:36:06.463Z,100422.19
2023-11-30T17:38:33.438Z,100423.50
2023-11-30T17:41:00.413Z,100421.72
2023-11-30T17:43:27.548Z,100425.88
2023-11-30T17:45:54.720Z,100432.34
2023-11-30T17:48:21.742Z,100440.25
2023-11-30T17:50:48.690Z,100436.91
2023-11-30T17:53:15.807Z,100447.72
2023-11-30T17:55:42.801Z,100442.81
2023-11-30T17:58:09.953Z,100447.94
2023-11-30T18:00:38.799Z,100452.66
2023-11-30T18:03:05.722Z,100444.94
2023-11-30T18:05:32.678Z,100441.59
2023-11-30T18:08:00.700Z,100449.19
2023-11-30T18:10:27.969Z,100440.94
2023-11-30T18:12:55.005Z,100445.97
2023-11-30T18:15:22.095Z,100436.34
2023-11-30T18:17:49.049Z,100444.50
2023-11-30T18:20:16.298Z,100449.06
2023-11-30T18:22:43.403Z,100444.59
2023-11-30T18:25:10.681Z,100448.38
2023-11-30T18:27:37.689Z,100448.38
2023-11-30T18:30:05.307Z,100449.94
2023-11-30T18:32:33.372Z,100461.00
2023-11-30T18:35:00.314Z,100457.44
2023-11-30T18:37:27.280Z,100463.00
2023-11-30T18:39:54.377Z,100467.78
2023-11-30T18:42:22.468Z,100471.38
2023-11-30T18:44:49.394Z,100465.44
2023-11-30T18:47:16.324Z,100468.44
2023-11-30T18:49:43.449Z,100470.44
2023-11-30T18:52:10.522Z,100471.69
2023-11-30T18:54:37.641Z,100467.31
2023-11-30T18:57:04.871Z,100471.13
2023-11-30T18:59:32.373Z,100471.53
2023-11-30T19:01:59.587Z,100472.66
2023-11-30T19:04:26.694Z,100473.34
2023-11-30T19:06:53.841Z,100477.69
2023-11-30T19:09:20.872Z,100482.38
2023-11-30T19:11:50.539Z,100485.94
2023-11-30T19:14:17.459Z,100487.84
2023-11-30T19:16:45.930Z,100487.97
2023-11-30T19:19:13.010Z,100484.41
2023-11-30T19:21:44.129Z,100483.38
2023-11-30T19:24:13.589Z,100493.91
2023-11-30T19:26:41.555Z,100493.34
2023-11-30T19:29:11.411Z,100488.31
2023-11-30T19:31:38.573Z,100488.31
2023-11-30T19:34:05.712Z,100480.63
2023-11-30T19:36:32.723Z,100481.63
2023-11-30T19:38:59.798Z,100480.50
2023-11-30T19:41:26.675Z,100480.94
2023-11-30T19:43:55.020Z,100490.84
2023-11-30T19:46:22.076Z,100477.03
2023-11-30T19:48:49.006Z,100484.56
2023-11-30T19:51:19.653Z,100493.19
2023-11-30T19:53:46.655Z,100490.06
2023-11-30T19:56:15.761Z,100500.53
2023-11-30T19:58:44.250Z,100494.53
2023-11-30T20:01:14.417Z,100502.84
2023-11-30T20:03:41.461Z,100492.38
2023-11-30T20:06:14.660Z,100493.34
2023-11-30T20:08:42.237Z,100493.72
2023-11-30T20:11:14.524Z,100492.94
2023-11-30T20:13:42.669Z,100505.56
2023-11-30T20:16:12.131Z,100507.78
2023-11-30T20:18:39.319Z,100512.75
2023-11-30T20:21:07.272Z,100507.28
2023-11-30T20:23:34.290Z,100502.38
2023-11-30T20:26:01.524Z,100506.72
2023-11-30T20:28:28.616Z,100497.66
2023-11-30T20:30:55.738Z,100501.38
2023-11-30T20:33:23.023Z,100508.94
2023-11-30T20:35:50.123Z,100510.94
2023-11-30T20:38:17.162Z,100513.16
2023-11-30T20:40:44.663Z,100511.59
2023-11-30T20:43:11.720Z,100513.00
2023-11-30T20:45:38.836Z,100515.81
2023-11-30T20:48:06.991Z,100516.72
2023-11-30T20:50:33.966Z,100519.63
2023-11-30T20:53:01.492Z,100519.03
2023-11-30T20:55:29.731Z,100512.94
2023-11-30T20:57:56.892Z,100514.16
2023-11-30T21:00:24.056Z,100509.44
2023-11-30T21:02:51.289Z,100524.06
2023-11-30T21:05:19.557Z,100521.50
2023-11-30T21:07:46.691Z,100529.59
2023-11-30T21:10:15.411Z,100528.06
2023-11-30T21:12:43.104Z,100526.25
2023-11-30T21:15:10.676Z,100536.25
2023-11-30T21:17:37.625Z,100534.31
2023-11-30T21:20:05.224Z,100528.97
2023-11-30T21:22:33.065Z,100535.47
2023-11-30T21:25:00.012Z,100544.06
2023-11-30T21:27:27.124Z,100543.50
2023-11-30T21:29:55.455Z,100546.28
2023-11-30T21:32:22.539Z,100547.44
2023-11-30T21:34:50.085Z,100549.63
2023-11-30T21:37:17.148Z,100556.38
2023-11-30T21:39:44.687Z,100554.97
2023-11-30T21:42:11.751Z,100554.88
2023-11-30T21:44:40.356Z,100564.28
2023-11-30T21:47:13.581Z,100568.63
2023-11-30T21:49:47.702Z,100565.09
2023-11-30T21:52:14.856Z,100570.22
2023-11-30T21:54:42.360Z,100574.91
2023-11-30T21:57:09.700Z,100576.47
2023-11-30T21:59:39.250Z,100570.84
2023-11-30T22:02:06.852Z,100575.75
2023-11-30T22:04:34.221Z,100570.63
2023-11-30T22:07:01.486Z,100580.19
2023-11-30T22:09:28.990Z,100589.31
2023-11-30T22:11:55.969Z,100590.44
2023-11-30T22:14:23.422Z,100583.31
2023-11-30T22:16:50.543Z,100576.81
2023-11-30T22:19:18.055Z,100576.63
2023-11-30T22:21:45.397Z,100586.66
2023-11-30T22:24:12.695Z,100586.88
2023-11-30T22:26:41.939Z,100587.44
2023-11-30T22:29:08.966Z,100581.75
2023-11-30T22:31:36.473Z,100587.66
2023-11-30T22:34:03.647Z,100586.88
2023-11-30T22:36:31.058Z,100597.13
2023-11-30T22:38:58.629Z,100597.13
2023-11-30T22:41:25.769Z,100600.69
2023-11-30T22:43:52.911Z,100608.16
2023-11-30T22:46:20.425Z,100614.38
2023-11-30T22:48:49.919Z,100610.66
2023-11-30T22:51:17.590Z,100601.19
2023-11-30T22:53:44.702Z,100601.56
2023-11-30T22:56:20.474Z,100598.34
2023-11-30T22:58:48.226Z,100599.56
2023-11-30T23:01:17.006Z,100600.91
2023-11-30T23:03:45.343Z,100609.81
2023-11-30T23:06:16.044Z,100614.13
2023-11-30T23:08:43.847Z,100616.50
2023-11-30T23:11:11.251Z,100622.63
2023-11-30T23:13:38.676Z,100618.50
2023-11-30T23:16:06.324Z,100623.22
2023-11-30T23:18:33.768Z,100617.06
2023-11-30T23:21:00.865Z,100620.41
2023-11-30T23:23:27.863Z,100624.34
2023-11-30T23:25:54.809Z,100627.69
2023-11-30T23:28:21.717Z,100625.69
2023-11-30T23:30:49.121Z,100628.63
2023-11-30T23:33:16.333Z,100629.25
2023-11-30T23:35:43.472Z,100623.91
2023-11-30T23:38:10.707Z,100626.84
2023-11-30T23:40:37.611Z,100631.75
2023-11-30T23:43:04.719Z,100630.75
2023-11-30T23:45:31.861Z,100633.31
2023-11-30T23:47:58.906Z,100631.41
2023-11-30T23:50:26.084Z,100636.31
2023-11-30T23:52:53.107Z,100639.88
2023-11-30T23:55:19.976Z,100635.88
2023-11-30T23:57:47.008Z,100640.03
